Time;durP1;ratioP1;P1;durP2;ratioP2;P2;SDS_P1;SDS_P2;PMS_P1;PMS_P2;Temp;Humidity;BMP_temperature;BMP_pressure;BME280_temperature;BME280_humidity;BME280_pressure;Samples;Min_cycle;Max_cycle;Signal;HPM_P1;HPM_P2
2022/11/26 00:01:15;;;;;;;25.50;15.57;;;5.40;77.40;;;;;;5015662;28;20359;-17
2022/11/26 00:03:42;;;;;;;25.08;14.68;;;5.40;77.50;;;;;;5015924;28;20034;-17
2022/11/26 00:06:22;;;;;;;23.02;14.55;;;5.30;77.80;;;;;;5015690;28;20057;-16
2022/11/26 00:08:48;;;;;;;23.88;14.23;;;5.20;77.80;;;;;;5015678;28;20033;-18
2022/11/26 00:11:16;;;;;;;24.10;14.55;;;5.20;77.80;;;;;;5015647;28;20026;-16
2022/11/26 00:13:42;;;;;;;24.73;14.98;;;5.20;77.90;;;;;;5015727;28;20050;-17
2022/11/26 00:16:12;;;;;;;27.20;15.05;;;5.10;77.90;;;;;;5015608;28;20026;-17
2022/11/26 00:18:38;;;;;;;17.80;12.50;;;5.20;78.20;;;;;;5015730;28;20401;-16
2022/11/26 00:21:05;;;;;;;17.83;10.82;;;5.20;78.30;;;;;;5015535;28;20485;-16
2022/11/26 00:23:31;;;;;;;18.83;11.27;;;5.20;78.00;;;;;;5015225;28;20038;-14
2022/11/26 00:26:02;;;;;;;23.80;14.63;;;5.20;77.90;;;;;;5015599;28;20026;-17
2022/11/26 00:28:37;;;;;;;23.15;14.88;;;5.20;77.90;;;;;;5013884;28;20467;-17
2022/11/26 00:31:06;;;;;;;22.05;14.57;;;5.20;77.90;;;;;;5015005;28;20072;-17
2022/11/26 00:33:32;;;;;;;19.55;12.23;;;5.20;77.90;;;;;;5015467;28;20072;-16
2022/11/26 00:36:05;;;;;;;19.83;12.30;;;5.20;77.90;;;;;;5015192;28;20038;-16
2022/11/26 00:38:31;;;;;;;18.57;11.53;;;5.10;78.00;;;;;;5015184;28;20029;-18
2022/11/26 00:40:58;;;;;;;18.02;12.10;;;5.10;78.30;;;;;;5014858;28;20268;-17
2022/11/26 00:43:24;;;;;;;20.45;13.00;;;5.20;78.40;;;;;;5015114;28;20025;-19
2022/11/26 00:45:50;;;;;;;14.13;9.57;;;5.20;78.40;;;;;;5014875;28;20104;-17
2022/11/26 00:48:17;;;;;;;19.10;11.57;;;5.20;78.20;;;;;;5014978;28;20367;-17
2022/11/26 00:50:50;;;;;;;20.17;12.75;;;5.20;78.40;;;;;;5015047;28;20406;-17
2022/11/26 00:53:20;;;;;;;17.38;10.45;;;5.20;78.30;;;;;;5015329;28;20381;-18
2022/11/26 00:55:48;;;;;;;15.63;10.57;;;5.20;78.10;;;;;;5015031;28;20045;-18
2022/11/26 00:58:26;;;;;;;15.02;10.25;;;5.20;78.20;;;;;;5014734;28;20041;-16
2022/11/26 01:00:54;;;;;;;17.70;11.45;;;5.20;78.20;;;;;;5014476;28;20026;-16
2022/11/26 01:03:20;;;;;;;17.52;10.60;;;5.20;78.10;;;;;;5015410;28;20033;-17
2022/11/26 01:05:55;;;;;;;18.20;11.65;;;5.20;78.10;;;;;;5015058;28;20030;-18
2022/11/26 01:08:29;;;;;;;19.98;12.30;;;5.20;78.20;;;;;;5014456;28;20029;-16
2022/11/26 01:10:56;;;;;;;;;;;5.20;78.00;;;;;;5014290;28;20029;-16
2022/11/26 01:13:22;;;;;;;21.13;13.30;;;5.10;78.10;;;;;;5014836;28;20338;-17
2022/11/26 01:15:49;;;;;;;19.73;12.05;;;5.10;78.20;;;;;;5014411;28;20037;-16
2022/11/26 01:18:17;;;;;;;20.35;13.07;;;5.10;78.20;;;;;;5014546;28;20022;-16
2022/11/26 01:20:44;;;;;;;20.20;12.65;;;5.10;78.20;;;;;;5014644;28;20075;-15
2022/11/26 01:23:12;;;;;;;18.88;10.68;;;5.10;78.20;;;;;;5014517;28;20029;-16
2022/11/26 01:25:39;;;;;;;16.90;10.07;;;5.10;78.40;;;;;;5014451;28;20041;-15
2022/11/26 01:28:11;;;;;;;17.42;10.50;;;5.10;78.40;;;;;;5014738;28;20029;-18
2022/11/26 01:30:37;;;;;;;17.83;11.77;;;5.10;78.30;;;;;;5014069;28;20026;-15
2022/11/26 01:33:03;;;;;;;21.02;12.55;;;5.20;78.20;;;;;;5014424;28;20026;-17
2022/11/26 01:35:30;;;;;;;17.85;12.18;;;5.20;78.30;;;;;;5014046;28;20109;-15
2022/11/26 01:37:56;;;;;;;17.58;11.73;;;5.20;78.30;;;;;;5014268;28;20500;-16
2022/11/26 01:40:48;;;;;;;15.57;9.93;;;5.10;78.10;;;;;;5014239;28;20109;-15
2022/11/26 01:43:27;;;;;;;16.15;10.18;;;5.10;78.20;;;;;;5014163;28;20030;-16
2022/11/26 01:45:55;;;;;;;16.73;10.82;;;5.10;78.30;;;;;;5013885;28;20382;-16
2022/11/26 01:48:21;;;;;;;13.23;8.35;;;5.10;78.30;;;;;;5013959;28;20069;-17
2022/11/26 01:50:52;;;;;;;15.13;9.98;;;5.20;78.40;;;;;;5014364;28;20442;-17
2022/11/26 01:53:54;;;;;;;13.52;7.57;;;5.20;78.20;;;;;;5014284;28;20068;-17
2022/11/26 01:56:34;;;;;;;13.02;8.18;;;5.20;78.20;;;;;;4999696;28;20042;-17
2022/11/26 01:59:10;;;;;;;14.65;9.18;;;5.30;78.10;;;;;;5013366;28;20478;-18
2022/11/26 02:01:35;;;;;;;15.90;8.98;;;5.30;78.30;;;;;;5014146;28;20037;-17
2022/11/26 02:04:10;;;;;;;14.85;9.85;;;5.20;78.40;;;;;;5013451;28;20022;-17
2022/11/26 02:06:36;;;;;;;16.88;9.82;;;5.30;78.20;;;;;;5013607;28;20485;-18
2022/11/26 02:09:06;;;;;;;14.50;9.68;;;5.20;78.10;;;;;;5013364;28;20105;-18
2022/11/26 02:11:33;;;;;;;14.35;9.50;;;5.20;78.10;;;;;;5013520;28;20397;-15
2022/11/26 02:14:03;;;;;;;13.55;8.48;;;5.20;78.10;;;;;;5013315;28;20389;-16
2022/11/26 02:16:49;;;;;;;13.35;8.00;;;5.20;78.10;;;;;;5013585;28;20030;-18
2022/11/26 02:19:42;;;;;;;13.73;8.35;;;5.20;78.10;;;;;;5013329;28;20049;-16
2022/11/26 02:22:30;;;;;;;13.63;7.10;;;5.20;78.20;;;;;;5012899;28;20489;-17
2022/11/26 02:25:20;;;;;;;13.93;8.48;;;5.30;78.10;;;;;;5012991;28;20014;-18
2022/11/26 02:28:16;;;;;;;11.85;7.18;;;5.30;78.00;;;;;;5013421;28;20096;-17
2022/11/26 02:30:46;;;;;;;11.85;7.90;;;5.20;78.20;;;;;;5013065;28;20037;-18
2022/11/26 02:33:23;;;;;;;13.50;8.30;;;5.20;78.00;;;;;;5012941;28;20025;-17
2022/11/26 02:35:55;;;;;;;11.70;7.13;;;5.10;78.10;;;;;;5013034;28;20100;-15
2022/11/26 02:38:24;;;;;;;11.32;6.78;;;5.00;78.10;;;;;;5013120;28;20029;-15
2022/11/26 02:40:51;;;;;;;13.38;8.13;;;5.00;78.30;;;;;;5012965;28;20131;-18
2022/11/26 02:43:18;;;;;;;15.20;8.45;;;5.00;78.50;;;;;;5013228;28;20030;-19
2022/11/26 02:45:50;;;;;;;11.07;6.70;;;4.90;78.50;;;;;;5012917;28;20405;-17
2022/11/26 02:48:24;;;;;;;13.15;7.82;;;4.90;78.40;;;;;;5013338;28;20032;-18
2022/11/26 02:50:55;;;;;;;11.73;7.63;;;4.90;78.50;;;;;;5013349;28;20382;-16
2022/11/26 02:53:24;;;;;;;15.65;9.45;;;4.90;78.50;;;;;;5012493;28;20080;-17
2022/11/26 02:56:12;;;;;;;10.02;6.60;;;4.90;78.70;;;;;;5012620;28;20061;-15
2022/11/26 02:58:39;;;;;;;10.57;6.75;;;4.90;78.50;;;;;;5012839;28;20026;-16
2022/11/26 03:01:11;;;;;;;17.17;10.13;;;4.90;78.50;;;;;;5012720;28;20061;-17
2022/11/26 03:03:45;;;;;;;15.73;9.80;;;4.90;78.50;;;;;;5013292;28;20063;-17
2022/11/26 03:06:13;;;;;;;16.27;10.25;;;4.80;78.40;;;;;;5012850;28;20026;-18
2022/11/26 03:08:41;;;;;;;15.10;9.55;;;4.80;78.50;;;;;;5013046;28;20076;-17
2022/11/26 03:11:07;;;;;;;14.63;8.80;;;4.80;78.60;;;;;;5012489;28;20494;-16
2022/11/26 03:13:33;;;;;;;13.57;8.85;;;4.80;78.70;;;;;;5013105;28;20025;-17
2022/11/26 03:15:59;;;;;;;13.88;7.90;;;4.70;78.80;;;;;;5012706;28;20030;-17
2022/11/26 03:18:25;;;;;;;12.50;8.25;;;4.70;78.80;;;;;;5012585;28;20121;-17
2022/11/26 03:20:51;;;;;;;13.32;7.90;;;4.80;78.90;;;;;;5012473;28;20022;-16
2022/11/26 03:23:16;;;;;;;15.57;8.48;;;4.80;78.80;;;;;;5012803;28;20026;-16
2022/11/26 03:25:42;;;;;;;13.98;8.30;;;4.90;78.80;;;;;;5013165;28;20492;-17
2022/11/26 03:28:08;;;;;;;12.73;7.32;;;4.90;78.80;;;;;;5012665;28;20030;-16
2022/11/26 03:30:34;;;;;;;9.98;5.95;;;4.90;78.80;;;;;;5012591;28;20034;-16
2022/11/26 03:33:00;;;;;;;12.73;7.40;;;4.90;78.80;;;;;;5012619;28;20030;-16
2022/11/26 03:35:26;;;;;;;9.50;6.05;;;4.90;78.80;;;;;;5016505;28;20022;-17
2022/11/26 03:37:52;;;;;;;10.63;6.85;;;4.90;78.70;;;;;;5016569;28;20041;-17
2022/11/26 03:40:18;;;;;;;9.10;5.57;;;5.00;78.50;;;;;;5014890;28;20528;-18
2022/11/26 03:42:44;;;;;;;11.93;5.82;;;5.00;78.40;;;;;;5016462;28;20425;-17
2022/11/26 03:45:11;;;;;;;12.65;6.80;;;5.10;78.40;;;;;;5015834;28;20038;-13
2022/11/26 03:47:38;;;;;;;11.48;6.45;;;5.00;78.30;;;;;;5016469;28;20025;-17
2022/11/26 03:50:06;;;;;;;12.13;6.82;;;5.00;78.10;;;;;;5014650;28;20029;-17
2022/11/26 03:52:32;;;;;;;11.65;6.43;;;5.00;78.10;;;;;;5016294;28;20022;-18
2022/11/26 03:54:58;;;;;;;11.38;6.68;;;5.00;78.10;;;;;;5015427;28;20528;-16
2022/11/26 03:57:24;;;;;;;9.73;6.50;;;5.00;78.00;;;;;;5015849;28;20026;-17
2022/11/26 03:59:50;;;;;;;9.98;5.78;;;5.00;78.00;;;;;;5016073;28;20029;-17
2022/11/26 04:02:16;;;;;;;13.13;6.72;;;4.90;78.00;;;;;;5016203;28;20057;-14
2022/11/26 04:04:42;;;;;;;10.18;6.18;;;4.90;78.10;;;;;;5015762;28;20600;-17
2022/11/26 04:07:08;;;;;;;12.38;6.38;;;4.90;78.20;;;;;;5015529;28;20037;-16
2022/11/26 04:09:33;;;;;;;11.68;5.90;;;4.90;78.20;;;;;;5016534;28;20097;-17
2022/11/26 04:11:59;;;;;;;11.07;5.63;;;5.00;78.00;;;;;;5015569;28;20034;-17
2022/11/26 04:14:25;;;;;;;9.57;6.05;;;5.00;78.00;;;;;;5015473;28;20033;-14
2022/11/26 04:16:51;;;;;;;9.10;5.30;;;5.00;78.00;;;;;;5015403;28;20030;-16
2022/11/26 04:19:17;;;;;;;12.85;6.55;;;5.00;77.90;;;;;;5014263;28;20026;-19
2022/11/26 04:21:43;;;;;;;12.02;5.63;;;5.00;77.80;;;;;;5015406;28;20168;-15
2022/11/26 04:24:08;;;;;;;8.45;4.78;;;5.10;77.80;;;;;;5015791;28;20025;-17
2022/11/26 04:26:34;;;;;;;7.93;4.60;;;5.10;77.70;;;;;;5015286;28;20060;-17
2022/11/26 04:29:00;;;;;;;8.75;5.18;;;5.10;77.60;;;;;;5015853;28;20112;-17
2022/11/26 04:31:26;;;;;;;12.70;5.35;;;5.10;77.60;;;;;;5015703;28;20030;-15
2022/11/26 04:33:52;;;;;;;8.77;4.57;;;5.10;77.50;;;;;;5015459;28;20036;-15
2022/11/26 04:36:18;;;;;;;9.25;5.03;;;5.10;77.50;;;;;;5015290;28;20049;-15
2022/11/26 04:38:44;;;;;;;8.82;5.32;;;5.00;77.40;;;;;;5015155;28;20024;-16
2022/11/26 04:41:10;;;;;;;8.25;4.25;;;5.10;77.40;;;;;;5015113;28;20041;-16
2022/11/26 04:43:36;;;;;;;7.70;4.75;;;5.00;77.40;;;;;;5015162;28;20022;-17
2022/11/26 04:46:01;;;;;;;9.60;5.20;;;5.00;77.30;;;;;;5014426;28;20478;-17
2022/11/26 04:48:27;;;;;;;9.35;5.28;;;5.00;77.30;;;;;;5015195;28;20438;-16
2022/11/26 04:50:53;;;;;;;7.70;4.85;;;5.00;77.30;;;;;;5014839;28;20026;-18
2022/11/26 04:53:20;;;;;;;7.80;4.32;;;4.90;77.30;;;;;;5014821;28;20030;-16
2022/11/26 04:55:51;;;;;;;7.53;4.50;;;4.90;77.40;;;;;;5014584;28;20058;-17
2022/11/26 04:58:18;;;;;;;9.00;5.10;;;4.90;77.40;;;;;;5014725;28;20467;-17
2022/11/26 05:00:44;;;;;;;8.25;4.70;;;4.80;77.40;;;;;;5015154;28;20018;-18
2022/11/26 05:03:10;;;;;;;8.10;4.85;;;4.80;77.50;;;;;;5015448;28;20029;-17
2022/11/26 05:05:37;;;;;;;7.63;4.55;;;4.70;77.60;;;;;;5014790;28;20386;-19
2022/11/26 05:08:02;;;;;;;7.80;4.82;;;4.70;77.70;;;;;;5014586;28;20022;-17
2022/11/26 05:10:28;;;;;;;8.23;4.68;;;4.60;77.80;;;;;;5014681;28;20026;-17
2022/11/26 05:12:54;;;;;;;9.05;5.10;;;4.60;78.00;;;;;;5014185;28;20501;-18
2022/11/26 05:15:20;;;;;;;9.35;5.13;;;4.50;78.00;;;;;;5014677;28;20068;-16
2022/11/26 05:17:46;;;;;;;7.50;4.72;;;4.50;78.00;;;;;;5014343;28;20026;-16
2022/11/26 05:20:13;;;;;;;8.70;4.20;;;4.50;78.10;;;;;;5014488;28;20104;-19
2022/11/26 05:22:40;;;;;;;6.10;3.70;;;4.50;78.20;;;;;;5014573;28;20034;-19
2022/11/26 05:25:07;;;;;;;7.22;3.92;;;4.50;78.20;;;;;;5014090;28;20062;-18
2022/11/26 05:27:33;;;;;;;6.63;4.03;;;4.50;78.10;;;;;;5014236;28;20440;-16
2022/11/26 05:29:59;;;;;;;8.65;4.72;;;4.50;78.10;;;;;;5014359;28;20433;-18
2022/11/26 05:32:25;;;;;;;7.97;4.72;;;4.50;78.10;;;;;;5014165;28;20022;-17
2022/11/26 05:34:51;;;;;;;9.80;5.70;;;4.50;78.10;;;;;;5014122;28;20026;-16
2022/11/26 05:37:17;;;;;;;9.13;5.15;;;4.50;78.10;;;;;;5013861;28;20080;-17
2022/11/26 05:39:42;;;;;;;13.65;6.28;;;4.40;78.10;;;;;;5014281;28;20026;-17
2022/11/26 05:42:08;;;;;;;10.80;5.90;;;4.40;78.10;;;;;;5013998;28;20105;-18
2022/11/26 05:44:34;;;;;;;8.02;4.97;;;4.40;78.10;;;;;;5013659;28;20037;-20
2022/11/26 05:47:00;;;;;;;8.25;5.07;;;4.40;78.10;;;;;;5013948;28;20030;-17
2022/11/26 05:49:26;;;;;;;9.70;5.25;;;4.30;78.20;;;;;;5014179;28;20500;-18
2022/11/26 05:51:52;;;;;;;8.45;5.13;;;4.30;78.20;;;;;;5013697;28;20033;-18
2022/11/26 05:54:18;;;;;;;9.13;5.13;;;4.30;78.30;;;;;;5013580;28;20022;-17
2022/11/26 05:56:44;;;;;;;9.13;5.18;;;4.30;78.40;;;;;;5014280;28;20109;-16
2022/11/26 05:59:10;;;;;;;6.15;4.10;;;4.30;78.30;;;;;;5013745;28;20037;-19
2022/11/26 06:01:36;;;;;;;8.07;4.72;;;4.30;78.30;;;;;;5013712;28;20029;-18
2022/11/26 06:04:02;;;;;;;7.78;4.30;;;4.30;78.30;;;;;;5013496;28;20034;-18
2022/11/26 06:06:28;;;;;;;7.93;3.85;;;4.40;78.20;;;;;;5013758;28;20036;-16
2022/11/26 06:08:55;;;;;;;8.60;4.55;;;4.40;78.10;;;;;;5013433;28;20022;-17
2022/11/26 06:11:21;;;;;;;8.38;5.03;;;4.40;78.20;;;;;;5013717;28;20026;-18
2022/11/26 06:13:47;;;;;;;7.18;3.97;;;4.40;78.00;;;;;;5013701;28;20022;-18
2022/11/26 06:16:12;;;;;;;9.13;4.78;;;4.40;78.00;;;;;;5013627;28;20029;-18
2022/11/26 06:18:39;;;;;;;9.63;4.82;;;4.40;78.00;;;;;;5013476;28;20026;-17
2022/11/26 06:21:06;;;;;;;10.50;5.22;;;4.40;78.00;;;;;;5013450;28;20369;-16
2022/11/26 06:23:33;;;;;;;10.20;5.18;;;4.40;77.90;;;;;;5013277;28;20037;-17
2022/11/26 06:26:00;;;;;;;10.35;5.53;;;4.40;77.80;;;;;;5013581;28;20033;-14
2022/11/26 06:28:27;;;;;;;9.70;5.57;;;4.40;77.80;;;;;;5013157;28;20042;-14
2022/11/26 06:30:53;;;;;;;10.70;6.13;;;4.40;77.80;;;;;;5012881;28;20116;-18
2022/11/26 06:33:19;;;;;;;10.57;5.63;;;4.40;77.80;;;;;;5013105;28;20037;-16
2022/11/26 06:35:45;;;;;;;6.93;4.03;;;4.40;77.80;;;;;;5013083;28;20059;-15
2022/11/26 06:38:10;;;;;;;7.55;3.72;;;4.40;77.70;;;;;;5013364;28;20179;-17
2022/11/26 06:40:36;;;;;;;8.63;3.72;;;4.50;77.70;;;;;;5013198;28;20458;-16
2022/11/26 06:43:02;;;;;;;4.25;3.10;;;4.40;77.60;;;;;;5013291;28;20034;-17
2022/11/26 06:45:28;;;;;;;5.85;3.92;;;4.60;77.50;;;;;;5013198;28;20482;-16
2022/11/26 06:47:54;;;;;;;6.13;3.90;;;4.60;77.40;;;;;;5013248;28;20026;-17
2022/11/26 06:50:21;;;;;;;6.63;3.75;;;4.60;77.40;;;;;;5013245;28;20043;-18
2022/11/26 06:52:53;;;;;;;7.97;4.40;;;4.60;77.30;;;;;;5012834;28;20386;-17
2022/11/26 06:55:20;;;;;;;8.38;4.38;;;4.60;77.20;;;;;;5012811;28;20112;-16
2022/11/26 06:57:51;;;;;;;9.05;4.80;;;4.60;77.30;;;;;;5013115;28;20398;-14
2022/11/26 07:00:17;;;;;;;10.68;5.13;;;4.60;77.20;;;;;;5012725;28;20022;-15
2022/11/26 07:02:43;;;;;;;13.75;5.72;;;4.60;77.20;;;;;;5013440;28;20033;-15
2022/11/26 07:05:09;;;;;;;13.50;6.55;;;4.60;77.20;;;;;;5012661;28;20034;-14
2022/11/26 07:07:38;;;;;;;18.33;10.88;;;4.60;77.30;;;;;;5013436;28;20033;-17
2022/11/26 07:10:05;;;;;;;18.63;9.52;;;4.50;77.20;;;;;;5016949;28;20048;-14
2022/11/26 07:12:32;;;;;;;33.55;14.15;;;4.60;77.20;;;;;;5016784;28;20053;-17
2022/11/26 07:14:57;;;;;;;20.70;10.40;;;4.60;77.30;;;;;;5016363;28;20041;-15
2022/11/26 07:17:23;;;;;;;27.58;15.40;;;4.50;77.40;;;;;;5016660;28;20034;-16
2022/11/26 07:19:49;;;;;;;15.88;8.40;;;4.60;77.40;;;;;;5016581;28;20065;-16
2022/11/26 07:22:15;;;;;;;14.88;7.35;;;4.50;77.30;;;;;;5016600;28;20105;-15
2022/11/26 07:24:41;;;;;;;15.18;7.53;;;4.60;77.30;;;;;;5016466;28;20026;-15
2022/11/26 07:27:08;;;;;;;15.55;7.20;;;4.60;77.30;;;;;;5016228;28;20034;-16
2022/11/26 07:29:34;;;;;;;12.02;7.10;;;4.60;77.20;;;;;;5016373;28;20113;-14
2022/11/26 07:31:59;;;;;;;11.25;7.15;;;4.60;77.20;;;;;;5015144;28;20113;-15
2022/11/26 07:34:25;;;;;;;9.27;5.63;;;4.60;77.10;;;;;;5016370;28;20113;-15
2022/11/26 07:36:51;;;;;;;12.13;6.60;;;4.60;77.10;;;;;;5016148;28;20026;-16
2022/11/26 07:39:17;;;;;;;23.13;11.23;;;4.60;77.00;;;;;;5016330;28;20029;-17
2022/11/26 07:41:43;;;;;;;17.05;9.63;;;4.60;77.00;;;;;;5014969;28;20030;-16
2022/11/26 07:44:13;;;;;;;16.08;9.52;;;4.70;77.00;;;;;;5016333;28;20045;-19
2022/11/26 07:46:39;;;;;;;12.65;7.32;;;4.60;77.10;;;;;;5016208;28;20504;-18
2022/11/26 07:49:05;;;;;;;15.10;6.88;;;4.60;77.00;;;;;;5015920;28;20026;-15
2022/11/26 07:51:32;;;;;;;12.55;6.28;;;4.60;77.10;;;;;;5016071;28;20034;-15
2022/11/26 07:54:02;;;;;;;14.60;7.78;;;4.50;77.10;;;;;;5016334;28;20462;-17
2022/11/26 07:56:28;;;;;;;17.33;9.57;;;4.50;77.10;;;;;;5015783;28;20061;-17
2022/11/26 07:58:54;;;;;;;12.95;7.47;;;4.60;77.10;;;;;;5015606;28;20171;-18
2022/11/26 08:01:23;;;;;;;12.63;6.75;;;4.60;77.10;;;;;;5016325;28;20021;-17
2022/11/26 08:03:50;;;;;;;12.05;6.68;;;4.60;76.90;;;;;;5015769;28;20033;-17
2022/11/26 08:06:19;;;;;;;11.60;6.43;;;4.70;76.90;;;;;;5014575;28;20041;-17
2022/11/26 08:08:45;;;;;;;13.00;7.40;;;4.70;76.70;;;;;;5015898;28;20553;-17
2022/11/26 08:11:23;;;;;;;11.35;5.90;;;4.80;76.70;;;;;;5015499;28;20045;-17
2022/11/26 08:13:55;;;;;;;14.98;7.57;;;4.90;76.60;;;;;;5014463;28;20033;-15
2022/11/26 08:16:21;;;;;;;13.73;7.28;;;5.00;76.50;;;;;;5016017;28;20033;-18
2022/11/26 08:18:47;;;;;;;13.23;7.97;;;5.10;76.30;;;;;;5014993;28;20041;-18
2022/11/26 08:21:13;;;;;;;15.60;8.90;;;5.40;76.00;;;;;;5014892;28;20165;-15
2022/11/26 08:23:39;;;;;;;14.75;9.30;;;5.50;75.70;;;;;;5015369;28;20375;-18
2022/11/26 08:26:11;;;;;;;15.32;10.30;;;5.80;75.50;;;;;;5015711;28;20036;-17
2022/11/26 08:28:37;;;;;;;19.48;10.80;;;6.10;75.70;;;;;;5015541;28;20025;-18
2022/11/26 08:31:06;;;;;;;15.65;7.90;;;6.30;75.20;;;;;;5015140;28;20022;-19
2022/11/26 08:33:33;;;;;;;16.77;7.55;;;6.70;75.20;;;;;;5015762;28;20031;-16
2022/11/26 08:36:00;;;;;;;15.40;7.80;;;7.00;74.20;;;;;;5015572;28;20029;-16
2022/11/26 08:38:27;;;;;;;14.55;7.43;;;7.40;73.30;;;;;;5015414;28;20028;-18
2022/11/26 08:40:54;;;;;;;12.75;7.95;;;7.80;72.00;;;;;;5015290;28;20034;-18
2022/11/26 08:43:20;;;;;;;15.35;7.40;;;8.10;72.60;;;;;;5013839;28;20446;-17
2022/11/26 08:45:58;;;;;;;13.50;7.35;;;8.50;71.90;;;;;;5014920;28;20029;-19
2022/11/26 08:48:26;;;;;;;11.40;7.13;;;8.90;69.80;;;;;;5015072;28;20024;-14
2022/11/26 08:51:04;;;;;;;12.73;6.75;;;9.20;69.90;;;;;;5014710;28;20473;-16
2022/11/26 08:53:31;;;;;;;12.65;6.45;;;9.60;69.60;;;;;;5015255;28;20022;-16
2022/11/26 08:56:03;;;;;;;11.48;6.28;;;9.90;68.70;;;;;;5014682;28;20077;-17
2022/11/26 08:58:29;;;;;;;9.52;5.75;;;10.20;68.60;;;;;;5014985;28;20088;-17
2022/11/26 09:00:55;;;;;;;12.98;6.70;;;10.50;67.80;;;;;;5014692;28;20018;-16
2022/11/26 09:03:21;;;;;;;9.68;5.57;;;10.90;67.30;;;;;;5014449;28;20100;-16
2022/11/26 09:05:47;;;;;;;8.18;5.03;;;11.10;66.40;;;;;;5014622;28;20053;-16
2022/11/26 09:08:12;;;;;;;10.75;5.40;;;11.10;65.20;;;;;;5015200;28;20018;-14
2022/11/26 09:10:38;;;;;;;10.30;5.15;;;11.20;66.10;;;;;;5014611;28;20084;-17
2022/11/26 09:13:04;;;;;;;8.60;5.15;;;11.40;65.70;;;;;;5014622;28;20037;-15
2022/11/26 09:15:30;;;;;;;8.48;5.10;;;11.70;64.80;;;;;;5014701;28;20470;-17
2022/11/26 09:17:56;;;;;;;7.55;4.32;;;12.10;64.50;;;;;;5014770;28;20036;-15
2022/11/26 09:20:22;;;;;;;6.15;3.50;;;12.40;63.10;;;;;;5014419;28;20026;-15
2022/11/26 09:22:48;;;;;;;8.70;4.03;;;12.60;63.10;;;;;;5014185;28;20033;-15
2022/11/26 09:25:14;;;;;;;7.82;3.75;;;12.80;62.20;;;;;;5014146;28;20038;-15
2022/11/26 09:27:40;;;;;;;7.10;3.97;;;13.20;62.00;;;;;;5014211;28;20092;-15
2022/11/26 09:30:07;;;;;;;5.13;3.25;;;13.40;59.50;;;;;;5013822;28;20061;-15
2022/11/26 09:32:33;;;;;;;9.18;3.92;;;13.60;59.00;;;;;;5014429;28;20127;-16
2022/11/26 09:34:59;;;;;;;6.15;3.42;;;13.90;55.60;;;;;;5013883;28;20440;-16
2022/11/26 09:37:25;;;;;;;5.97;3.35;;;14.10;57.00;;;;;;5014704;28;20477;-17
2022/11/26 09:39:53;;;;;;;5.68;3.58;;;14.40;54.10;;;;;;5014083;28;20037;-16
2022/11/26 09:42:37;;;;;;;4.47;2.88;;;14.60;54.30;;;;;;5013988;28;20040;-17
2022/11/26 09:45:36;;;;;;;5.53;3.15;;;14.80;54.20;;;;;;5013628;28;20343;-16
2022/11/26 09:48:04;;;;;;;4.82;2.65;;;15.10;54.90;;;;;;5013889;28;20478;-15
2022/11/26 09:50:37;;;;;;;4.40;2.28;;;15.40;50.80;;;;;;5013992;28;20017;-16
2022/11/26 09:53:12;;;;;;;2.73;2.13;;;15.40;51.10;;;;;;5013747;28;20026;-16
2022/11/26 09:55:42;;;;;;;3.70;2.40;;;15.50;47.00;;;;;;5013739;28;20280;-16
2022/11/26 09:58:15;;;;;;;4.18;2.30;;;15.60;48.30;;;;;;5013757;28;20054;-17
2022/11/26 10:00:44;;;;;;;5.03;2.13;;;15.70;47.00;;;;;;5013919;28;20072;-16
2022/11/26 10:03:34;;;;;;;5.20;2.40;;;15.90;47.10;;;;;;5013436;28;20121;-16
2022/11/26 10:06:08;;;;;;;2.53;1.98;;;16.20;46.00;;;;;;5012350;28;20402;-18
2022/11/26 10:08:53;;;;;;;3.20;1.70;;;16.30;44.50;;;;;;5013840;28;20018;-16
2022/11/26 10:11:46;;;;;;;2.45;1.95;;;16.50;44.00;;;;;;5013859;28;20042;-16
2022/11/26 10:14:43;;;;;;;2.67;1.95;;;16.60;44.20;;;;;;4991266;28;20057;-16
2022/11/26 10:17:38;;;;;;;3.05;1.75;;;16.70;45.40;;;;;;5013444;28;20121;-16
2022/11/26 10:20:18;;;;;;;2.83;1.52;;;16.80;45.70;;;;;;5014023;28;20076;-17
2022/11/26 10:22:58;;;;;;;3.50;1.85;;;16.80;42.50;;;;;;5013442;28;20084;-16
2022/11/26 10:25:32;;;;;;;2.75;1.73;;;17.00;45.00;;;;;;5013470;28;20029;-18
2022/11/26 10:27:59;;;;;;;4.03;2.20;;;17.20;44.90;;;;;;5013909;28;20022;-15
2022/11/26 10:30:28;;;;;;;4.00;2.10;;;17.40;41.10;;;;;;5013258;28;20508;-16
2022/11/26 10:32:58;;;;;;;2.50;1.73;;;17.50;42.60;;;;;;5013117;28;20022;-15
2022/11/26 10:35:27;;;;;;;2.75;2.00;;;17.60;42.70;;;;;;5013662;28;20077;-15
2022/11/26 10:37:58;;;;;;;2.42;2.00;;;17.60;43.70;;;;;;5013144;28;20030;-16
2022/11/26 10:40:31;;;;;;;3.42;1.90;;;17.70;45.00;;;;;;5013401;28;20038;-16
2022/11/26 10:43:08;;;;;;;4.15;2.15;;;17.80;43.70;;;;;;5012516;28;20026;-16
2022/11/26 10:45:37;;;;;;;4.57;2.40;;;17.90;43.30;;;;;;5013195;28;20087;-16
2022/11/26 10:48:34;;;;;;;3.20;1.95;;;18.00;42.20;;;;;;5012991;28;20113;-16
2022/11/26 10:51:24;;;;;;;2.65;1.80;;;18.20;41.30;;;;;;5013423;28;20478;-16
2022/11/26 10:53:56;;;;;;;3.60;1.77;;;18.50;38.90;;;;;;5013222;28;20413;-15
2022/11/26 10:56:35;;;;;;;2.60;1.80;;;18.60;42.20;;;;;;5012825;28;20050;-15
2022/11/26 10:59:05;;;;;;;2.80;2.05;;;18.80;39.50;;;;;;5012802;28;20105;-16
2022/11/26 11:01:38;;;;;;;3.15;2.05;;;19.00;42.80;;;;;;5013134;28;20026;-15
2022/11/26 11:04:23;;;;;;;1.95;1.75;;;19.30;41.00;;;;;;5012787;28;20438;-15
2022/11/26 11:06:49;;;;;;;3.83;1.88;;;19.50;39.80;;;;;;5012768;28;20393;-16
2022/11/26 11:09:33;;;;;;;3.47;2.10;;;19.50;40.20;;;;;;5012662;28;20041;-15
2022/11/26 11:12:11;;;;;;;2.55;2.00;;;19.30;40.40;;;;;;5013433;28;20022;-15
2022/11/26 11:14:42;;;;;;;3.65;2.20;;;19.00;40.20;;;;;;5011466;28;20030;-16
2022/11/26 11:17:28;;;;;;;2.45;1.92;;;18.70;42.30;;;;;;5013418;28;20485;-16
2022/11/26 11:20:01;;;;;;;4.53;2.22;;;18.40;42.10;;;;;;5013210;28;20463;-15
2022/11/26 11:22:27;;;;;;;;;;;17.90;42.20;;;;;;5013206;28;20026;-15
2022/11/26 11:24:57;;;;;;;3.08;1.85;;;17.50;42.50;;;;;;5012623;28;19910;-16
2022/11/26 11:27:40;;;;;;;3.08;2.17;;;17.50;44.90;;;;;;5012542;28;20025;-16
2022/11/26 11:30:22;;;;;;;2.23;1.87;;;17.30;44.00;;;;;;5012773;28;20076;-16
2022/11/26 11:32:49;;;;;;;3.35;2.35;;;17.10;44.20;;;;;;5012544;28;20478;-16
2022/11/26 11:35:19;;;;;;;3.60;2.10;;;16.90;45.30;;;;;;5012658;28;20436;-16
2022/11/26 11:37:50;;;;;;;4.07;2.60;;;16.80;46.10;;;;;;5013178;28;20022;-15
2022/11/26 11:40:24;;;;;;;4.88;2.78;;;16.70;46.20;;;;;;5012524;28;20026;-15
2022/11/26 11:43:04;;;;;;;3.35;2.25;;;16.60;46.20;;;;;;5012697;28;20030;-16
2022/11/26 11:45:39;;;;;;;2.70;2.00;;;16.70;45.80;;;;;;5012796;28;20044;-15
2022/11/26 11:48:16;;;;;;;2.67;2.08;;;16.80;46.30;;;;;;5012859;28;20030;-16
2022/11/26 11:50:50;;;;;;;3.63;2.40;;;17.10;46.90;;;;;;5012444;28;20033;-15
2022/11/26 11:54:07;;;;;;;4.95;2.60;;;17.40;43.20;;;;;;5012392;28;20026;-15
2022/11/26 11:56:47;;;;;;;4.60;2.50;;;17.50;42.60;;;;;;4955696;29;20047;-16
2022/11/26 11:59:56;;;;;;;3.15;2.30;;;17.70;44.40;;;;;;4955596;29;20070;-16
2022/11/26 12:02:36;;;;;;;4.20;2.63;;;18.10;44.70;;;;;;4955743;29;20031;-16
2022/11/26 12:05:13;;;;;;;4.03;2.15;;;18.40;45.20;;;;;;4954994;29;20031;-16
2022/11/26 12:08:05;;;;;;;2.65;2.20;;;18.40;43.80;;;;;;4956044;29;20054;-16
2022/11/26 12:11:00;;;;;;;3.00;1.92;;;18.30;41.90;;;;;;4938248;29;20023;-17
2022/11/26 12:13:28;;;;;;;3.88;2.40;;;18.00;42.90;;;;;;4955233;29;20032;-16
2022/11/26 12:16:00;;;;;;;3.60;2.20;;;17.80;44.20;;;;;;4955237;29;20031;-16
2022/11/26 12:18:34;;;;;;;3.45;2.13;;;17.60;43.90;;;;;;4955223;29;20440;-16
2022/11/26 12:21:10;;;;;;;4.90;2.47;;;17.60;44.90;;;;;;4954915;29;20063;-15
2022/11/26 12:23:54;;;;;;;3.03;2.10;;;17.80;43.90;;;;;;4955013;29;20034;-15
2022/11/26 12:26:47;;;;;;;3.75;2.30;;;17.90;43.20;;;;;;4967041;28;20461;-16
2022/11/26 12:29:39;;;;;;;3.35;2.30;;;18.10;44.20;;;;;;5015383;28;20101;-15
2022/11/26 12:32:15;;;;;;;4.45;2.47;;;18.10;44.10;;;;;;5015976;28;20021;-15
2022/11/26 12:34:51;;;;;;;3.30;2.20;;;18.00;45.00;;;;;;5015514;28;20022;-15
2022/11/26 12:37:17;;;;;;;3.22;2.10;;;18.00;43.90;;;;;;5015305;28;20390;-17
2022/11/26 12:39:59;;;;;;;3.15;2.10;;;18.20;44.40;;;;;;5015456;28;20030;-16
2022/11/26 12:42:51;;;;;;;2.92;2.00;;;18.30;43.10;;;;;;5015430;28;20064;-15
2022/11/26 12:45:38;;;;;;;2.90;2.10;;;18.30;42.90;;;;;;5015354;28;20478;-15
2022/11/26 12:48:14;;;;;;;2.17;1.98;;;18.30;41.30;;;;;;5015149;28;20478;-16
2022/11/26 12:51:25;;;;;;;5.00;2.20;;;18.10;42.90;;;;;;5015572;28;20037;-16
2022/11/26 12:54:24;;;;;;;3.20;1.75;;;17.90;41.40;;;;;;4954686;29;20034;-15
2022/11/26 12:57:07;;;;;;;3.42;2.28;;;17.60;41.80;;;;;;4954022;28;20091;-16
2022/11/26 12:59:50;;;;;;;4.00;2.30;;;17.50;43.00;;;;;;4954298;29;20043;-16
2022/11/26 13:02:24;;;;;;;2.77;1.77;;;17.70;43.00;;;;;;4954360;29;20400;-16
2022/11/26 13:04:53;;;;;;;5.30;2.30;;;17.90;43.80;;;;;;4953665;28;20069;-18
2022/11/26 13:08:11;;;;;;;3.70;2.22;;;18.00;43.20;;;;;;4953826;29;20035;-15